sensor_id;sensor_type;location;lat;lon;timestamp;temperature;humidity
9820;DHT22;4949;48.482;9.206;2024-01-27T00:02:49;6.00;98.30
9820;DHT22;4949;48.482;9.206;2024-01-27T00:07:49;5.90;98.20
9820;DHT22;4949;48.482;9.206;2024-01-27T00:12:50;5.80;98.20
9820;DHT22;4949;48.482;9.206;2024-01-27T00:17:53;5.60;98.10
9820;DHT22;4949;48.482;9.206;2024-01-27T00:22:54;5.60;98.10
9820;DHT22;4949;48.482;9.206;2024-01-27T00:27:55;5.40;98.30
9820;DHT22;4949;48.482;9.206;2024-01-27T00:32:58;5.40;98.10
9820;DHT22;4949;48.482;9.206;2024-01-27T00:37:58;5.20;98.10
9820;DHT22;4949;48.482;9.206;2024-01-27T00:42:59;5.20;97.90
9820;DHT22;4949;48.482;9.206;2024-01-27T00:48:03;5.10;98.10
9820;DHT22;4949;48.482;9.206;2024-01-27T00:53:06;5.00;98.30
9820;DHT22;4949;48.482;9.206;2024-01-27T00:58:07;4.90;98.00
9820;DHT22;4949;48.482;9.206;2024-01-27T01:03:11;5.20;98.30
9820;DHT22;4949;48.482;9.206;2024-01-27T01:08:15;4.80;98.30
9820;DHT22;4949;48.482;9.206;2024-01-27T01:13:16;4.70;98.40
9820;DHT22;4949;48.482;9.206;2024-01-27T01:18:17;5.10;98.40
9820;DHT22;4949;48.482;9.206;2024-01-27T01:23:20;4.90;98.70
9820;DHT22;4949;48.482;9.206;2024-01-27T01:28:21;4.50;98.50
9820;DHT22;4949;48.482;9.206;2024-01-27T01:33:23;4.40;98.40
9820;DHT22;4949;48.482;9.206;2024-01-27T01:38:24;4.40;98.70
9820;DHT22;4949;48.482;9.206;2024-01-27T01:43:28;4.30;98.60
9820;DHT22;4949;48.482;9.206;2024-01-27T01:48:29;4.60;98.90
9820;DHT22;4949;48.482;9.206;2024-01-27T01:53:32;4.10;98.60
9820;DHT22;4949;48.482;9.206;2024-01-27T01:58:32;4.00;98.50
9820;DHT22;4949;48.482;9.206;2024-01-27T02:03:34;4.00;98.60
9820;DHT22;4949;48.482;9.206;2024-01-27T02:08:40;4.00;98.40
9820;DHT22;4949;48.482;9.206;2024-01-27T02:13:43;3.80;98.60
9820;DHT22;4949;48.482;9.206;2024-01-27T02:18:44;3.80;98.60
9820;DHT22;4949;48.482;9.206;2024-01-27T02:23:45;3.70;98.70
9820;DHT22;4949;48.482;9.206;2024-01-27T02:28:46;3.70;98.50
9820;DHT22;4949;48.482;9.206;2024-01-27T02:33:47;3.60;98.80
9820;DHT22;4949;48.482;9.206;2024-01-27T02:38:47;3.50;98.80
9820;DHT22;4949;48.482;9.206;2024-01-27T02:43:50;3.50;98.80
9820;DHT22;4949;48.482;9.206;2024-01-27T02:48:53;3.40;99.00
9820;DHT22;4949;48.482;9.206;2024-01-27T02:53:58;3.30;98.80
9820;DHT22;4949;48.482;9.206;2024-01-27T02:58:58;3.30;98.70
9820;DHT22;4949;48.482;9.206;2024-01-27T03:03:59;2.90;98.50
9820;DHT22;4949;48.482;9.206;2024-01-27T03:09:02;3.10;98.70
9820;DHT22;4949;48.482;9.206;2024-01-27T03:14:04;3.40;99.00
9820;DHT22;4949;48.482;9.206;2024-01-27T03:19:04;3.00;98.80
9820;DHT22;4949;48.482;9.206;2024-01-27T03:24:08;3.00;98.90
9820;DHT22;4949;48.482;9.206;2024-01-27T03:29:11;3.20;99.00
9820;DHT22;4949;48.482;9.206;2024-01-27T03:34:14;2.90;98.80
9820;DHT22;4949;48.482;9.206;2024-01-27T03:39:15;2.90;99.00
9820;DHT22;4949;48.482;9.206;2024-01-27T03:44:16;3.10;98.90
9820;DHT22;4949;48.482;9.206;2024-01-27T03:49:17;2.80;99.10
9820;DHT22;4949;48.482;9.206;2024-01-27T03:54:20;2.80;98.90
9820;DHT22;4949;48.482;9.206;2024-01-27T03:59:21;3.00;99.00
9820;DHT22;4949;48.482;9.206;2024-01-27T04:04:21;2.60;99.00
9820;DHT22;4949;48.482;9.206;2024-01-27T04:09:24;3.00;99.40
9820;DHT22;4949;48.482;9.206;2024-01-27T04:14:25;2.60;99.40
9820;DHT22;4949;48.482;9.206;2024-01-27T04:19:26;2.80;99.70
9820;DHT22;4949;48.482;9.206;2024-01-27T04:24:29;2.70;99.80
9820;DHT22;4949;48.482;9.206;2024-01-27T04:29:32;2.90;99.90
9820;DHT22;4949;48.482;9.206;2024-01-27T04:34:33;2.60;99.70
9820;DHT22;4949;48.482;9.206;2024-01-27T04:39:38;3.10;99.90
9820;DHT22;4949;48.482;9.206;2024-01-27T04:44:41;2.70;99.90
9820;DHT22;4949;48.482;9.206;2024-01-27T04:49:42;2.70;99.90
9820;DHT22;4949;48.482;9.206;2024-01-27T04:54:43;2.70;99.80
9820;DHT22;4949;48.482;9.206;2024-01-27T04:59:44;2.60;99.70
9820;DHT22;4949;48.482;9.206;2024-01-27T05:04:47;2.90;99.90
9820;DHT22;4949;48.482;9.206;2024-01-27T05:09:47;2.60;99.60
9820;DHT22;4949;48.482;9.206;2024-01-27T05:14:48;2.50;99.60
9820;DHT22;4949;48.482;9.206;2024-01-27T05:19:51;2.40;99.60
9820;DHT22;4949;48.482;9.206;2024-01-27T05:24:52;2.40;99.60
9820;DHT22;4949;48.482;9.206;2024-01-27T05:29:52;2.30;99.70
9820;DHT22;4949;48.482;9.206;2024-01-27T05:35:00;2.30;99.60
9820;DHT22;4949;48.482;9.206;2024-01-27T05:40:01;2.20;99.70
9820;DHT22;4949;48.482;9.206;2024-01-27T05:45:03;2.10;99.80
9820;DHT22;4949;48.482;9.206;2024-01-27T05:50:05;2.10;99.90
9820;DHT22;4949;48.482;9.206;2024-01-27T05:55:08;2.10;99.90
9820;DHT22;4949;48.482;9.206;2024-01-27T06:00:12;2.30;99.90
9820;DHT22;4949;48.482;9.206;2024-01-27T06:05:13;2.00;99.90
9820;DHT22;4949;48.482;9.206;2024-01-27T06:10:17;1.90;99.90
9820;DHT22;4949;48.482;9.206;2024-01-27T06:15:18;1.80;99.90
9820;DHT22;4949;48.482;9.206;2024-01-27T06:20:21;1.80;99.90
9820;DHT22;4949;48.482;9.206;2024-01-27T06:25:22;2.30;99.90
9820;DHT22;4949;48.482;9.206;2024-01-27T06:30:25;1.80;99.70
9820;DHT22;4949;48.482;9.206;2024-01-27T06:35:26;1.40;99.80
9820;DHT22;4949;48.482;9.206;2024-01-27T06:40:27;1.80;99.90
9820;DHT22;4949;48.482;9.206;2024-01-27T06:45:27;1.60;99.70
9820;DHT22;4949;48.482;9.206;2024-01-27T06:50:31;1.60;99.70
9820;DHT22;4949;48.482;9.206;2024-01-27T06:55:32;1.30;99.70
9820;DHT22;4949;48.482;9.206;2024-01-27T07:00:33;1.80;99.90
9820;DHT22;4949;48.482;9.206;2024-01-27T07:05:33;1.40;99.70
9820;DHT22;4949;48.482;9.206;2024-01-27T07:10:39;1.40;99.80
9820;DHT22;4949;48.482;9.206;2024-01-27T07:15:39;1.70;99.90
9820;DHT22;4949;48.482;9.206;2024-01-27T07:20:40;1.40;99.80
9820;DHT22;4949;48.482;9.206;2024-01-27T07:25:41;1.00;99.60
9820;DHT22;4949;48.482;9.206;2024-01-27T07:30:42;1.30;99.90
9820;DHT22;4949;48.482;9.206;2024-01-27T07:35:42;1.30;99.50
9820;DHT22;4949;48.482;9.206;2024-01-27T07:40:49;1.10;99.80
9820;DHT22;4949;48.482;9.206;2024-01-27T07:45:49;1.30;99.80
9820;DHT22;4949;48.482;9.206;2024-01-27T07:50:52;1.30;99.90
9820;DHT22;4949;48.482;9.206;2024-01-27T07:55:55;1.30;99.70
9820;DHT22;4949;48.482;9.206;2024-01-27T08:00:59;1.40;99.90
9820;DHT22;4949;48.482;9.206;2024-01-27T08:06:05;1.70;99.90
9820;DHT22;4949;48.482;9.206;2024-01-27T08:11:09;1.40;99.90
9820;DHT22;4949;48.482;9.206;2024-01-27T08:16:10;1.80;99.90
9820;DHT22;4949;48.482;9.206;2024-01-27T08:21:14;1.40;99.90
9820;DHT22;4949;48.482;9.206;2024-01-27T08:26:15;1.50;99.90
9820;DHT22;4949;48.482;9.206;2024-01-27T08:31:16;1.90;99.90
9820;DHT22;4949;48.482;9.206;2024-01-27T08:36:19;1.60;99.90
9820;DHT22;4949;48.482;9.206;2024-01-27T08:41:23;2.00;99.90
9820;DHT22;4949;48.482;9.206;2024-01-27T08:46:23;1.70;99.90
9820;DHT22;4949;48.482;9.206;2024-01-27T08:51:24;1.90;99.90
9820;DHT22;4949;48.482;9.206;2024-01-27T08:56:25;1.80;99.90
9820;DHT22;4949;48.482;9.206;2024-01-27T09:01:28;2.00;99.90
9820;DHT22;4949;48.482;9.206;2024-01-27T09:06:28;1.90;99.90
9820;DHT22;4949;48.482;9.206;2024-01-27T09:11:29;2.10;99.90
9820;DHT22;4949;48.482;9.206;2024-01-27T09:16:34;2.10;99.90
9820;DHT22;4949;48.482;9.206;2024-01-27T09:21:37;2.20;99.90
9820;DHT22;4949;48.482;9.206;2024-01-27T09:26:40;2.40;99.90
9820;DHT22;4949;48.482;9.206;2024-01-27T09:31:44;2.20;99.90
9820;DHT22;4949;48.482;9.206;2024-01-27T09:36:48;2.30;99.90
9820;DHT22;4949;48.482;9.206;2024-01-27T09:41:49;2.30;99.90
9820;DHT22;4949;48.482;9.206;2024-01-27T09:46:50;2.50;99.90
9820;DHT22;4949;48.482;9.206;2024-01-27T09:51:51;2.60;99.90
9820;DHT22;4949;48.482;9.206;2024-01-27T09:56:56;3.10;99.90
9820;DHT22;4949;48.482;9.206;2024-01-27T10:01:58;2.90;99.90
9820;DHT22;4949;48.482;9.206;2024-01-27T10:07:25;3.20;99.90
9820;DHT22;4949;48.482;9.206;2024-01-27T10:12:35;3.50;99.90
9820;DHT22;4949;48.482;9.206;2024-01-27T10:17:42;3.80;99.40
9820;DHT22;4949;48.482;9.206;2024-01-27T10:22:45;4.30;99.90
9820;DHT22;4949;48.482;9.206;2024-01-27T10:27:46;4.70;98.90
9820;DHT22;4949;48.482;9.206;2024-01-27T10:32:59;5.10;98.60
9820;DHT22;4949;48.482;9.206;2024-01-27T10:38:06;5.50;98.10
9820;DHT22;4949;48.482;9.206;2024-01-27T10:43:08;6.00;97.20
9820;DHT22;4949;48.482;9.206;2024-01-27T10:48:10;6.30;96.70
9820;DHT22;4949;48.482;9.206;2024-01-27T10:53:24;6.80;95.70
9820;DHT22;4949;48.482;9.206;2024-01-27T10:58:36;7.20;94.80
9820;DHT22;4949;48.482;9.206;2024-01-27T11:03:41;7.70;94.00
9820;DHT22;4949;48.482;9.206;2024-01-27T11:08:44;7.90;92.80
9820;DHT22;4949;48.482;9.206;2024-01-27T11:13:46;8.40;92.80
9820;DHT22;4949;48.482;9.206;2024-01-27T11:18:49;8.90;91.80
9820;DHT22;4949;48.482;9.206;2024-01-27T11:23:50;9.10;91.00
9820;DHT22;4949;48.482;9.206;2024-01-27T11:28:54;9.40;89.00
9820;DHT22;4949;48.482;9.206;2024-01-27T11:33:58;9.80;89.00
9820;DHT22;4949;48.482;9.206;2024-01-27T11:38:59;9.80;88.00
9820;DHT22;4949;48.482;9.206;2024-01-27T11:44:04;9.70;87.60
9820;DHT22;4949;48.482;9.206;2024-01-27T11:49:05;10.00;86.40
9820;DHT22;4949;48.482;9.206;2024-01-27T11:54:06;10.00;86.30
9820;DHT22;4949;48.482;9.206;2024-01-27T11:59:06;10.20;86.60
9820;DHT22;4949;48.482;9.206;2024-01-27T12:04:09;10.20;86.00
9820;DHT22;4949;48.482;9.206;2024-01-27T12:09:13;10.10;86.40
9820;DHT22;4949;48.482;9.206;2024-01-27T12:14:14;10.00;87.40
9820;DHT22;4949;48.482;9.206;2024-01-27T12:19:17;10.10;87.30
9820;DHT22;4949;48.482;9.206;2024-01-27T12:24:20;10.20;86.80
9820;DHT22;4949;48.482;9.206;2024-01-27T12:29:24;10.10;87.70
9820;DHT22;4949;48.482;9.206;2024-01-27T12:34:25;10.10;87.50
9820;DHT22;4949;48.482;9.206;2024-01-27T12:39:28;10.30;87.10
9820;DHT22;4949;48.482;9.206;2024-01-27T12:44:32;10.20;87.70
9820;DHT22;4949;48.482;9.206;2024-01-27T12:49:36;10.50;86.80
9820;DHT22;4949;48.482;9.206;2024-01-27T12:54:37;10.50;86.80
9820;DHT22;4949;48.482;9.206;2024-01-27T12:59:39;10.50;85.70
9820;DHT22;4949;48.482;9.206;2024-01-27T13:04:42;10.70;86.00
9820;DHT22;4949;48.482;9.206;2024-01-27T13:09:43;10.80;84.60
9820;DHT22;4949;48.482;9.206;2024-01-27T13:14:49;11.10;84.10
9820;DHT22;4949;48.482;9.206;2024-01-27T13:19:52;11.30;83.60
9820;DHT22;4949;48.482;9.206;2024-01-27T13:24:53;11.30;82.70
9820;DHT22;4949;48.482;9.206;2024-01-27T13:29:55;11.50;81.10
9820;DHT22;4949;48.482;9.206;2024-01-27T13:34:55;11.50;80.00
9820;DHT22;4949;48.482;9.206;2024-01-27T13:39:56;11.30;80.00
9820;DHT22;4949;48.482;9.206;2024-01-27T13:45:00;11.50;78.00
9820;DHT22;4949;48.482;9.206;2024-01-27T13:50:01;11.40;77.70
9820;DHT22;4949;48.482;9.206;2024-01-27T13:55:02;11.40;76.80
9820;DHT22;4949;48.482;9.206;2024-01-27T14:00:05;11.50;78.00
9820;DHT22;4949;48.482;9.206;2024-01-27T14:05:06;11.70;77.70
9820;DHT22;4949;48.482;9.206;2024-01-27T14:10:08;11.70;77.30
9820;DHT22;4949;48.482;9.206;2024-01-27T14:15:09;11.70;77.90
9820;DHT22;4949;48.482;9.206;2024-01-27T14:20:13;11.80;77.40
9820;DHT22;4949;48.482;9.206;2024-01-27T14:25:14;11.90;77.40
9820;DHT22;4949;48.482;9.206;2024-01-27T14:30:15;12.00;77.90
9820;DHT22;4949;48.482;9.206;2024-01-27T14:35:18;12.10;77.30
9820;DHT22;4949;48.482;9.206;2024-01-27T14:40:19;12.30;76.50
9820;DHT22;4949;48.482;9.206;2024-01-27T14:45:21;12.40;75.40
9820;DHT22;4949;48.482;9.206;2024-01-27T14:50:22;12.50;75.10
9820;DHT22;4949;48.482;9.206;2024-01-27T14:55:26;12.60;73.90
9820;DHT22;4949;48.482;9.206;2024-01-27T15:00:26;12.40;74.40
9820;DHT22;4949;48.482;9.206;2024-01-27T15:05:27;12.20;74.90
9820;DHT22;4949;48.482;9.206;2024-01-27T15:10:28;12.20;74.80
9820;DHT22;4949;48.482;9.206;2024-01-27T15:15:34;12.10;74.30
9820;DHT22;4949;48.482;9.206;2024-01-27T15:20:35;12.00;74.60
9820;DHT22;4949;48.482;9.206;2024-01-27T15:25:39;11.70;75.30
9820;DHT22;4949;48.482;9.206;2024-01-27T15:30:39;11.40;76.20
9820;DHT22;4949;48.482;9.206;2024-01-27T15:35:42;11.20;77.50
9820;DHT22;4949;48.482;9.206;2024-01-27T15:40:43;11.00;77.30
9820;DHT22;4949;48.482;9.206;2024-01-27T15:45:44;10.80;78.30
9820;DHT22;4949;48.482;9.206;2024-01-27T15:50:45;11.00;80.30
9820;DHT22;4949;48.482;9.206;2024-01-27T15:55:49;10.30;80.90
9820;DHT22;4949;48.482;9.206;2024-01-27T16:00:50;10.20;81.50
9820;DHT22;4949;48.482;9.206;2024-01-27T16:05:51;9.60;83.30
9820;DHT22;4949;48.482;9.206;2024-01-27T16:10:54;9.60;84.30
9820;DHT22;4949;48.482;9.206;2024-01-27T16:15:55;9.40;85.40
9820;DHT22;4949;48.482;9.206;2024-01-27T16:21:13;9.20;87.00
9820;DHT22;4949;48.482;9.206;2024-01-27T16:26:16;8.70;88.70
9820;DHT22;4949;48.482;9.206;2024-01-27T16:31:16;8.40;90.10
9820;DHT22;4949;48.482;9.206;2024-01-27T16:36:17;8.10;90.70
9820;DHT22;4949;48.482;9.206;2024-01-27T16:41:18;7.80;91.30
9820;DHT22;4949;48.482;9.206;2024-01-27T16:46:19;7.50;92.00
9820;DHT22;4949;48.482;9.206;2024-01-27T16:51:20;7.30;92.20
9820;DHT22;4949;48.482;9.206;2024-01-27T16:56:23;7.20;92.40
9820;DHT22;4949;48.482;9.206;2024-01-27T17:01:25;7.00;92.60
9820;DHT22;4949;48.482;9.206;2024-01-27T17:06:29;6.70;93.00
9820;DHT22;4949;48.482;9.206;2024-01-27T17:11:32;6.50;93.40
9820;DHT22;4949;48.482;9.206;2024-01-27T17:16:35;6.50;93.50
9820;DHT22;4949;48.482;9.206;2024-01-27T17:21:37;6.40;93.60
9820;DHT22;4949;48.482;9.206;2024-01-27T17:26:38;6.60;94.00
9820;DHT22;4949;48.482;9.206;2024-01-27T17:31:39;6.10;93.70
9820;DHT22;4949;48.482;9.206;2024-01-27T17:36:40;5.90;94.20
9820;DHT22;4949;48.482;9.206;2024-01-27T17:41:40;5.80;94.00
9820;DHT22;4949;48.482;9.206;2024-01-27T17:46:42;5.60;93.90
9820;DHT22;4949;48.482;9.206;2024-01-27T17:51:46;6.10;92.50
9820;DHT22;4949;48.482;9.206;2024-01-27T17:56:49;5.60;91.80
9820;DHT22;4949;48.482;9.206;2024-01-27T18:01:57;5.70;92.20
9820;DHT22;4949;48.482;9.206;2024-01-27T18:07:00;5.50;92.80
9820;DHT22;4949;48.482;9.206;2024-01-27T18:12:01;5.60;93.60
9820;DHT22;4949;48.482;9.206;2024-01-27T18:17:05;5.20;93.00
9820;DHT22;4949;48.482;9.206;2024-01-27T18:22:05;5.60;88.80
9820;DHT22;4949;48.482;9.206;2024-01-27T18:27:07;5.60;87.30
9820;DHT22;4949;48.482;9.206;2024-01-27T18:32:08;6.10;87.30
9820;DHT22;4949;48.482;9.206;2024-01-27T18:37:09;5.60;87.10
9820;DHT22;4949;48.482;9.206;2024-01-27T18:42:09;5.60;87.50
9820;DHT22;4949;48.482;9.206;2024-01-27T18:47:10;5.50;88.20
9820;DHT22;4949;48.482;9.206;2024-01-27T18:52:14;5.50;88.70
9820;DHT22;4949;48.482;9.206;2024-01-27T18:57:15;5.50;89.10
9820;DHT22;4949;48.482;9.206;2024-01-27T19:02:46;5.60;89.60
9820;DHT22;4949;48.482;9.206;2024-01-27T19:08:37;5.30;89.80
9820;DHT22;4949;48.482;9.206;2024-01-27T19:13:43;5.20;90.00
9820;DHT22;4949;48.482;9.206;2024-01-27T19:23:54;5.10;90.40
9820;DHT22;4949;48.482;9.206;2024-01-27T19:29:02;5.10;90.50
9820;DHT22;4949;48.482;9.206;2024-01-27T19:34:23;5.00;90.50
9820;DHT22;4949;48.482;9.206;2024-01-27T19:39:25;5.00;90.70
9820;DHT22;4949;48.482;9.206;2024-01-27T19:44:44;5.00;90.90
9820;DHT22;4949;48.482;9.206;2024-01-27T19:55:36;4.90;90.80
9820;DHT22;4949;48.482;9.206;2024-01-27T20:13:09;5.00;90.80
9820;DHT22;4949;48.482;9.206;2024-01-27T20:18:50;5.00;90.70
9820;DHT22;4949;48.482;9.206;2024-01-27T20:24:28;5.10;90.60
9820;DHT22;4949;48.482;9.206;2024-01-27T20:29:40;5.10;90.40
9820;DHT22;4949;48.482;9.206;2024-01-27T20:34:46;5.00;90.50
9820;DHT22;4949;48.482;9.206;2024-01-27T20:39:53;5.20;90.80
9820;DHT22;4949;48.482;9.206;2024-01-27T20:44:56;5.30;90.90
9820;DHT22;4949;48.482;9.206;2024-01-27T20:50:07;4.90;91.00
9820;DHT22;4949;48.482;9.206;2024-01-27T20:55:08;4.90;91.10
9820;DHT22;4949;48.482;9.206;2024-01-27T21:00:10;4.90;91.10
9820;DHT22;4949;48.482;9.206;2024-01-27T21:05:14;4.90;91.20
9820;DHT22;4949;48.482;9.206;2024-01-27T21:10:20;5.30;91.30
9820;DHT22;4949;48.482;9.206;2024-01-27T21:15:20;4.80;91.20
9820;DHT22;4949;48.482;9.206;2024-01-27T21:20:24;5.30;91.20
9820;DHT22;4949;48.482;9.206;2024-01-27T21:25:25;5.30;91.20
9820;DHT22;4949;48.482;9.206;2024-01-27T21:30:25;5.00;91.10
9820;DHT22;4949;48.482;9.206;2024-01-27T21:35:30;5.10;91.20
9820;DHT22;4949;48.482;9.206;2024-01-27T21:40:34;5.40;91.90
9820;DHT22;4949;48.482;9.206;2024-01-27T21:45:40;4.70;93.50
9820;DHT22;4949;48.482;9.206;2024-01-27T21:50:40;4.50;94.30
9820;DHT22;4949;48.482;9.206;2024-01-27T21:55:41;4.40;95.10
9820;DHT22;4949;48.482;9.206;2024-01-27T22:00:45;4.60;95.80
9820;DHT22;4949;48.482;9.206;2024-01-27T22:05:49;3.90;95.70
9820;DHT22;4949;48.482;9.206;2024-01-27T22:10:49;4.10;96.00
9820;DHT22;4949;48.482;9.206;2024-01-27T22:15:50;4.00;96.70
9820;DHT22;4949;48.482;9.206;2024-01-27T22:20:51;4.10;96.10
9820;DHT22;4949;48.482;9.206;2024-01-27T22:25:55;4.40;95.80
9820;DHT22;4949;48.482;9.206;2024-01-27T22:30:57;5.00;95.80
9820;DHT22;4949;48.482;9.206;2024-01-27T22:35:58;4.80;95.60
9820;DHT22;4949;48.482;9.206;2024-01-27T22:41:03;4.70;95.70
9820;DHT22;4949;48.482;9.206;2024-01-27T22:46:04;4.50;95.70
9820;DHT22;4949;48.482;9.206;2024-01-27T22:51:05;4.30;96.20
9820;DHT22;4949;48.482;9.206;2024-01-27T22:56:06;4.70;96.60
9820;DHT22;4949;48.482;9.206;2024-01-27T23:01:07;4.50;96.80
9820;DHT22;4949;48.482;9.206;2024-01-27T23:06:12;4.90;96.40
9820;DHT22;4949;48.482;9.206;2024-01-27T23:11:14;5.10;96.00
9820;DHT22;4949;48.482;9.206;2024-01-27T23:16:14;5.30;95.70
9820;DHT22;4949;48.482;9.206;2024-01-27T23:21:16;5.40;95.70
9820;DHT22;4949;48.482;9.206;2024-01-27T23:26:17;5.40;95.80
9820;DHT22;4949;48.482;9.206;2024-01-27T23:31:20;5.20;94.30
9820;DHT22;4949;48.482;9.206;2024-01-27T23:36:20;4.90;94.60
9820;DHT22;4949;48.482;9.206;2024-01-27T23:41:24;4.80;95.50
9820;DHT22;4949;48.482;9.206;2024-01-27T23:46:25;4.20;95.80
9820;DHT22;4949;48.482;9.206;2024-01-27T23:51:26;3.90;96.40
9820;DHT22;4949;48.482;9.206;2024-01-27T23:56:27;3.80;96.60
